Manter, KS

11:01 AM CDT on October 30, 2014 (GMT -0500)
Springfield | Change Station
CLOSE
Current Station
Airport
Location: Springfield,
Elevation: 4380 ft
Nearby Weather Stations
Active Advisory: Freeze Watch

Elev 4380 ft 37.28 °N, 102.61 °W | Updated 5 minutes ago

Clear
Clear
57 °F
Feels Like 57 °F
N
16
Wind Variable Wind from North
Gusts 14 mph

Today
High -- | Low -- °F
--% Chance of Precip.
Yesterday
High -- | Low -- °F
Precip. -- in
8:10 AM 6:51 PM
Waxing Crescent, 45% visible
Pressure 30.26 in
Visibility -9999.0 miles
Clouds
Dew Point 25 °F
Humidity 29%
Rainfall 0.00 in
Snow Depth Not available.
UV Not available.
Pollen 2.40 out of 12
Air Quality Not available.
Flu Activity Not available.
METAR KSPD 301556Z AUTO 36014KT 14/M04 A3034 RMK AO1 SLP247 T01391039

More Conditions Fewer Conditions

Pressure 30.26 in
Visibility -9999.0 miles
Clouds
Dew Point 25 °F
Humidity 29%
Rainfall 0.00 in
Snow Depth Not available.
UV Not available.
Pollen 2.40 out of 12
Air Quality Not available.
Flu Activity Not available.
METAR KSPD 301556Z AUTO 36014KT 14/M04 A3034 RMK AO1 SLP247 T01391039

More Conditions Fewer Conditions

10-Day Weather Forecast

Almanac

Astronomy

Oct. 30, 2014 Rise Set
Actual Time
Civil Twilight
Nautical Twilight
Astronomical Twilight
Moon
Length of Visible Light
Length of Day
Tomorrow will be .
, % of the Moon is Illuminated

Today's Extremes

State Highs State Lows

Community

WunderPhotos

Upload Photos

1,766,394 photos uploaded!

WunderBlogs® & News

Nearby

Air Quality

  Air Quality AQ Index Pollutant
Not available.

Snow Depth

Station Depth Elevation

Earthquake Activity

City Distance Mag. Time & Date
Minimum magnitude displayed is 2.5.

Coastal Water Temperatures

Place Temperature

Nearby Weather Stations